createdAt,value
2018-07-30T00:02:08.582Z,71.00
2018-07-30T00:04:42.850Z,69.80
2018-07-30T00:07:17.226Z,71.80
2018-07-30T00:09:51.509Z,72.00
2018-07-30T00:12:25.765Z,72.40
2018-07-30T00:15:00.090Z,74.10
2018-07-30T00:17:34.394Z,76.00
2018-07-30T00:20:08.642Z,75.90
2018-07-30T00:22:42.959Z,76.50
2018-07-30T00:25:17.134Z,76.00
2018-07-30T00:27:51.456Z,76.00
2018-07-30T00:30:25.722Z,75.00
2018-07-30T00:32:59.898Z,76.00
2018-07-30T00:35:34.228Z,76.90
2018-07-30T00:38:08.574Z,75.50
2018-07-30T00:40:42.786Z,75.20
2018-07-30T00:43:17.104Z,75.20
2018-07-30T00:45:51.401Z,74.80
2018-07-30T00:48:25.644Z,72.90
2018-07-30T00:50:59.851Z,72.60
2018-07-30T00:53:34.198Z,71.90
2018-07-30T00:56:08.464Z,71.20
2018-07-30T00:58:42.753Z,71.60
2018-07-30T01:03:51.202Z,71.40
2018-07-30T01:06:25.508Z,71.60
2018-07-30T01:09:00.202Z,71.70
2018-07-30T01:11:34.478Z,71.60
2018-07-30T01:14:09.598Z,71.90
2018-07-30T01:16:45.266Z,72.60
2018-07-30T01:19:19.481Z,72.70
2018-07-30T01:21:53.786Z,73.10
2018-07-30T01:24:28.115Z,73.50
2018-07-30T01:27:02.392Z,74.20
2018-07-30T01:29:36.725Z,73.90
2018-07-30T01:32:11.037Z,73.60
2018-07-30T01:34:45.305Z,74.90
2018-07-30T01:37:19.574Z,75.00
2018-07-30T01:39:53.905Z,74.70
2018-07-30T01:42:28.318Z,74.50
2018-07-30T01:45:02.710Z,74.40
2018-07-30T01:47:36.845Z,73.40
2018-07-30T01:52:45.301Z,72.90
2018-07-30T01:55:19.689Z,72.50
2018-07-30T01:57:53.895Z,72.40
2018-07-30T02:00:28.245Z,72.30
2018-07-30T02:03:02.495Z,71.80
2018-07-30T02:05:36.878Z,72.40
2018-07-30T02:08:11.176Z,72.30
2018-07-30T02:10:45.502Z,71.90
2018-07-30T02:13:19.790Z,72.10
2018-07-30T02:15:54.201Z,71.70
2018-07-30T02:18:28.494Z,72.30
2018-07-30T02:21:02.894Z,74.20
2018-07-30T02:23:37.218Z,74.50
2018-07-30T02:26:11.510Z,75.50
2018-07-30T02:28:45.830Z,74.90
2018-07-30T02:31:20.102Z,75.60
2018-07-30T02:33:54.217Z,75.40
2018-07-30T02:36:28.554Z,75.20
2018-07-30T02:39:02.875Z,75.60
2018-07-30T02:41:37.110Z,75.80
2018-07-30T02:44:11.417Z,76.50
2018-07-30T02:49:19.601Z,75.40
2018-07-30T02:51:53.998Z,75.20
2018-07-30T02:54:28.270Z,75.50
2018-07-30T02:57:02.602Z,76.50
2018-07-30T02:59:36.826Z,76.50
2018-07-30T03:02:11.146Z,75.90
2018-07-30T03:04:45.454Z,77.00
2018-07-30T03:07:19.771Z,77.60
2018-07-30T03:09:53.974Z,78.40
2018-07-30T03:12:28.309Z,77.60
2018-07-30T03:15:02.569Z,78.10
2018-07-30T03:17:37.022Z,78.40
2018-07-30T03:20:11.293Z,78.60
2018-07-30T03:22:45.671Z,78.40
2018-07-30T03:25:19.949Z,79.20
2018-07-30T03:27:54.286Z,80.10
2018-07-30T03:30:28.702Z,80.70
2018-07-30T03:33:02.999Z,80.30
2018-07-30T03:35:37.290Z,80.30
2018-07-30T03:38:11.570Z,79.50
2018-07-30T03:40:45.858Z,80.40
2018-07-30T03:43:20.222Z,80.40
2018-07-30T03:45:54.517Z,80.60
2018-07-30T03:48:28.827Z,80.10
2018-07-30T03:51:03.166Z,80.60
2018-07-30T03:53:37.594Z,80.30
2018-07-30T03:56:11.793Z,80.10
2018-07-30T03:58:46.162Z,79.20
2018-07-30T04:01:20.522Z,77.80
2018-07-30T04:03:54.930Z,78.00
2018-07-30T04:06:29.263Z,78.20
2018-07-30T04:09:05.154Z,78.30
2018-07-30T04:11:39.421Z,78.00
2018-07-30T04:14:13.599Z,78.40
2018-07-30T04:16:50.400Z,77.50
2018-07-30T04:19:24.538Z,78.40
2018-07-30T04:21:58.838Z,76.90
2018-07-30T04:24:33.282Z,76.00
2018-07-30T04:27:07.663Z,75.70
2018-07-30T04:29:41.977Z,75.80
2018-07-30T04:32:16.175Z,76.10
2018-07-30T04:34:50.467Z,76.30
2018-07-30T04:37:24.801Z,76.40
2018-07-30T04:39:59.206Z,75.80
2018-07-30T04:42:33.563Z,75.80
2018-07-30T04:45:08.226Z,76.50
2018-07-30T04:47:42.670Z,76.00
2018-07-30T04:50:16.909Z,74.80
2018-07-30T04:52:51.191Z,74.30
2018-07-30T04:55:25.390Z,74.20
2018-07-30T04:57:59.614Z,74.70
2018-07-30T05:00:33.871Z,74.70
2018-07-30T05:03:08.321Z,74.60
2018-07-30T05:05:42.741Z,73.30
2018-07-30T05:08:16.973Z,73.60
2018-07-30T05:10:51.285Z,73.00
2018-07-30T05:13:25.558Z,72.90
2018-07-30T05:15:59.802Z,72.60
2018-07-30T05:18:34.139Z,72.40
2018-07-30T05:21:08.810Z,72.10
2018-07-30T05:23:42.922Z,71.80
2018-07-30T05:26:17.258Z,71.70
2018-07-30T05:28:51.504Z,72.30
2018-07-30T05:31:25.834Z,72.20
2018-07-30T05:34:00.077Z,71.90
2018-07-30T05:36:34.382Z,71.90
2018-07-30T05:39:10.013Z,71.50
2018-07-30T05:41:44.209Z,72.20
2018-07-30T05:44:18.542Z,72.50
2018-07-30T05:46:52.966Z,72.50
2018-07-30T05:49:27.366Z,72.60
2018-07-30T05:52:01.803Z,71.50
2018-07-30T05:54:36.109Z,71.50
2018-07-30T05:57:10.499Z,71.40
2018-07-30T05:59:44.677Z,71.70
2018-07-30T06:02:19.038Z,70.10
2018-07-30T06:04:53.387Z,69.60
2018-07-30T06:07:27.650Z,69.40
2018-07-30T06:10:01.929Z,69.00
2018-07-30T06:12:36.225Z,68.30
2018-07-30T06:15:10.535Z,67.80
2018-07-30T06:17:44.890Z,68.30
2018-07-30T06:20:19.210Z,68.10
2018-07-30T06:22:53.653Z,68.40
2018-07-30T06:25:27.970Z,67.60
2018-07-30T06:28:02.347Z,67.00
2018-07-30T06:30:36.638Z,62.00
2018-07-30T06:33:10.989Z,64.80
2018-07-30T06:35:45.254Z,61.20
2018-07-30T06:38:19.713Z,61.40
2018-07-30T06:40:53.949Z,59.70
2018-07-30T06:43:28.370Z,59.70
2018-07-30T06:46:02.720Z,58.60
2018-07-30T06:48:36.938Z,58.80
2018-07-30T06:51:11.205Z,59.80
2018-07-30T06:53:45.542Z,60.70
2018-07-30T06:56:19.845Z,58.80
2018-07-30T06:58:54.078Z,58.40
2018-07-30T07:01:28.295Z,57.10
2018-07-30T07:04:02.654Z,57.20
2018-07-30T07:06:37.005Z,57.10
2018-07-30T07:09:11.445Z,57.70
2018-07-30T07:11:45.722Z,58.00
2018-07-30T07:14:19.992Z,58.20
2018-07-30T07:16:54.455Z,58.20
2018-07-30T07:19:28.722Z,58.40
2018-07-30T07:22:03.109Z,58.50
2018-07-30T07:24:37.338Z,58.80
2018-07-30T07:27:11.780Z,58.50
2018-07-30T07:29:46.099Z,58.00
2018-07-30T07:32:20.246Z,59.10
2018-07-30T07:34:54.623Z,58.00
2018-07-30T07:37:28.908Z,57.10
2018-07-30T07:40:03.267Z,56.90
2018-07-30T07:42:37.565Z,56.70
2018-07-30T07:45:11.902Z,56.90
2018-07-30T07:47:46.186Z,56.80
2018-07-30T07:50:20.544Z,56.80
2018-07-30T07:52:54.734Z,56.20
2018-07-30T07:55:29.010Z,56.40
2018-07-30T07:58:03.342Z,56.20
2018-07-30T08:00:37.694Z,55.70
2018-07-30T08:03:12.152Z,55.80
2018-07-30T08:05:46.554Z,55.50
2018-07-30T08:08:20.798Z,55.40
2018-07-30T08:10:55.102Z,55.30
2018-07-30T08:13:29.383Z,55.50
2018-07-30T08:16:03.695Z,55.40
2018-07-30T08:18:37.957Z,55.70
2018-07-30T08:21:12.251Z,54.80
2018-07-30T08:23:46.565Z,54.10
2018-07-30T08:26:25.486Z,54.00
2018-07-30T08:29:00.007Z,53.80
2018-07-30T08:31:34.297Z,54.20
2018-07-30T08:34:08.579Z,54.60
2018-07-30T08:36:43.034Z,52.80
2018-07-30T08:39:17.200Z,53.10
2018-07-30T08:41:51.528Z,52.40
2018-07-30T08:44:25.689Z,53.90
2018-07-30T08:47:00.000Z,52.20
2018-07-30T08:49:34.394Z,51.80
2018-07-30T08:52:08.788Z,52.20
2018-07-30T08:54:43.151Z,51.40
2018-07-30T08:57:17.382Z,51.50
2018-07-30T08:59:51.727Z,52.20
2018-07-30T09:02:26.095Z,50.40
2018-07-30T09:05:00.559Z,49.50
2018-07-30T09:07:34.834Z,47.80
2018-07-30T09:10:09.193Z,49.50
2018-07-30T09:12:43.450Z,48.90
2018-07-30T09:15:17.722Z,48.70
2018-07-30T09:17:52.046Z,48.50
2018-07-30T09:20:26.450Z,48.80
2018-07-30T09:23:00.734Z,48.20
2018-07-30T09:25:35.038Z,47.80
2018-07-30T09:28:09.370Z,47.30
2018-07-30T09:30:43.774Z,47.40
2018-07-30T09:33:18.053Z,46.90
2018-07-30T09:35:52.569Z,46.80
2018-07-30T09:38:26.805Z,46.90
2018-07-30T09:41:01.112Z,47.90
2018-07-30T09:43:35.413Z,46.60
2018-07-30T09:46:09.746Z,46.30
2018-07-30T09:48:44.159Z,46.90
2018-07-30T09:53:52.549Z,44.80
2018-07-30T09:56:27.015Z,44.70
2018-07-30T09:59:01.487Z,45.70
2018-07-30T10:01:35.645Z,44.90
2018-07-30T10:04:10.011Z,46.30
2018-07-30T10:06:44.363Z,46.40
2018-07-30T10:09:18.562Z,45.80
2018-07-30T10:11:54.458Z,45.40
2018-07-30T10:14:28.666Z,43.90
2018-07-30T10:17:03.017Z,41.60
2018-07-30T10:19:37.339Z,42.70
2018-07-30T10:22:11.770Z,43.50
2018-07-30T10:24:46.447Z,42.40
2018-07-30T10:27:20.739Z,41.40
2018-07-30T10:29:55.019Z,41.90
2018-07-30T10:32:29.277Z,40.30
2018-07-30T10:35:03.597Z,40.50
2018-07-30T10:37:37.947Z,39.90
2018-07-30T10:40:12.230Z,42.20
2018-07-30T10:42:46.482Z,41.60
2018-07-30T10:45:20.761Z,39.50
2018-07-30T10:47:55.000Z,41.10
2018-07-30T10:50:29.571Z,41.20
2018-07-30T10:53:03.854Z,40.60
2018-07-30T10:55:38.349Z,39.10
2018-07-30T11:00:46.722Z,39.10
2018-07-30T11:03:20.954Z,40.10
2018-07-30T11:05:55.226Z,40.30
2018-07-30T11:08:29.554Z,40.80
2018-07-30T11:11:03.801Z,40.50
2018-07-30T11:13:38.290Z,41.30
2018-07-30T11:16:12.448Z,41.20
2018-07-30T11:18:46.722Z,39.80
2018-07-30T11:21:20.990Z,39.30
2018-07-30T11:23:55.305Z,38.90
2018-07-30T11:26:29.562Z,38.40
2018-07-30T11:29:03.923Z,39.00
2018-07-30T11:31:38.144Z,37.10
2018-07-30T11:34:12.377Z,38.70
2018-07-30T11:36:46.739Z,38.20
2018-07-30T11:39:20.940Z,38.60
2018-07-30T11:41:55.130Z,36.70
2018-07-30T11:44:29.338Z,37.90
2018-07-30T11:47:03.485Z,37.50
2018-07-30T11:49:38.266Z,36.80
2018-07-30T11:52:12.615Z,36.30
2018-07-30T11:54:46.938Z,36.40
2018-07-30T11:57:21.262Z,35.70
2018-07-30T11:59:55.565Z,36.50
2018-07-30T12:02:29.845Z,36.60
2018-07-30T12:05:04.142Z,36.20
2018-07-30T12:07:38.329Z,36.20
2018-07-30T12:10:12.666Z,36.30
2018-07-30T12:12:47.013Z,36.40
2018-07-30T12:15:21.205Z,37.80
2018-07-30T12:17:55.489Z,36.40
2018-07-30T12:20:29.939Z,37.40
2018-07-30T12:23:04.116Z,37.20
2018-07-30T12:25:38.678Z,35.90
2018-07-30T12:28:12.889Z,36.20
2018-07-30T12:30:47.537Z,36.70
2018-07-30T12:33:21.693Z,36.20
2018-07-30T12:35:56.070Z,35.20
2018-07-30T12:38:30.230Z,36.50
2018-07-30T12:41:04.494Z,36.40
2018-07-30T12:43:38.684Z,35.30
2018-07-30T12:46:12.913Z,35.60
2018-07-30T12:48:47.190Z,33.80
2018-07-30T12:51:21.333Z,35.00
2018-07-30T12:53:56.259Z,33.90
2018-07-30T12:56:30.606Z,35.50
2018-07-30T12:59:04.780Z,34.10
2018-07-30T13:01:39.034Z,32.80
2018-07-30T13:04:13.334Z,32.40
2018-07-30T13:06:47.638Z,32.40
2018-07-30T13:09:21.922Z,31.30
2018-07-30T13:11:56.187Z,33.40
2018-07-30T13:14:30.350Z,33.70
2018-07-30T13:17:04.605Z,33.60
2018-07-30T13:19:38.970Z,33.80
2018-07-30T13:22:13.195Z,34.60
2018-07-30T13:24:47.466Z,33.50
2018-07-30T13:27:22.118Z,33.20
2018-07-30T13:29:56.522Z,33.00
2018-07-30T13:32:30.836Z,32.60
2018-07-30T13:35:05.447Z,34.50
2018-07-30T13:37:39.762Z,33.50
2018-07-30T13:40:14.052Z,32.80
2018-07-30T13:42:48.354Z,31.30
2018-07-30T13:45:22.683Z,31.40
2018-07-30T13:47:57.012Z,31.30
2018-07-30T13:50:31.257Z,32.00
2018-07-30T13:53:05.459Z,32.30
2018-07-30T13:55:39.597Z,32.90
2018-07-30T13:58:14.003Z,32.90
2018-07-30T14:00:48.467Z,32.40
2018-07-30T14:03:22.773Z,32.90
2018-07-30T14:05:57.105Z,33.00
2018-07-30T14:08:31.459Z,33.20
2018-07-30T14:13:39.707Z,33.50
2018-07-30T14:16:14.075Z,33.10
2018-07-30T14:18:48.468Z,32.30
2018-07-30T14:21:22.788Z,33.20
2018-07-30T14:23:57.061Z,33.50
2018-07-30T14:26:31.346Z,33.90
2018-07-30T14:29:05.473Z,33.60
2018-07-30T14:31:39.781Z,34.20
2018-07-30T14:34:14.066Z,34.60
2018-07-30T14:36:48.303Z,35.40
2018-07-30T14:39:23.315Z,35.00
2018-07-30T14:41:57.572Z,35.50
2018-07-30T14:44:31.957Z,35.60
2018-07-30T14:49:40.227Z,35.70
2018-07-30T14:52:14.566Z,36.20
2018-07-30T14:54:48.879Z,35.10
2018-07-30T14:57:23.277Z,35.50
2018-07-30T14:59:57.672Z,34.70
2018-07-30T15:02:31.917Z,36.70
2018-07-30T15:05:06.214Z,36.30
2018-07-30T15:07:40.382Z,35.40
2018-07-30T15:10:14.707Z,35.90
2018-07-30T15:12:48.982Z,35.90
2018-07-30T15:15:23.281Z,36.30
2018-07-30T15:17:57.585Z,35.80
2018-07-30T15:20:31.920Z,34.80
2018-07-30T15:23:06.216Z,35.00
2018-07-30T15:25:40.554Z,34.10
2018-07-30T15:28:14.907Z,34.10
2018-07-30T15:30:49.254Z,34.20
2018-07-30T15:33:23.505Z,33.80
2018-07-30T15:35:57.694Z,33.80
2018-07-30T15:38:32.042Z,33.00
2018-07-30T15:41:06.338Z,33.10
2018-07-30T15:43:40.466Z,33.90
2018-07-30T15:46:14.906Z,34.10
2018-07-30T15:48:49.149Z,32.70
2018-07-30T15:51:23.466Z,33.10
2018-07-30T15:53:57.699Z,32.60
2018-07-30T15:56:31.975Z,33.80
2018-07-30T15:59:06.221Z,34.00
2018-07-30T16:01:40.693Z,35.20
2018-07-30T16:04:14.998Z,34.60
2018-07-30T16:06:49.225Z,33.90
2018-07-30T16:09:23.407Z,34.60
2018-07-30T16:11:57.958Z,35.60
2018-07-30T16:14:32.542Z,35.00
2018-07-30T16:17:06.833Z,34.90
2018-07-30T16:19:41.150Z,34.40
2018-07-30T16:22:15.610Z,34.80
2018-07-30T16:24:50.038Z,36.30
2018-07-30T16:27:24.333Z,35.50
2018-07-30T16:29:58.613Z,36.00
2018-07-30T16:32:32.971Z,36.00
2018-07-30T16:35:07.262Z,36.90
2018-07-30T16:37:41.462Z,35.20
2018-07-30T16:40:15.597Z,35.90
2018-07-30T16:42:50.023Z,36.60
2018-07-30T16:45:24.477Z,36.70
2018-07-30T16:47:58.746Z,37.40
2018-07-30T16:50:33.041Z,37.60
2018-07-30T16:53:07.326Z,37.00
2018-07-30T16:55:41.529Z,37.00
2018-07-30T16:58:15.814Z,38.10
2018-07-30T17:00:50.114Z,36.70
2018-07-30T17:03:24.497Z,35.20
2018-07-30T17:05:58.790Z,36.30
2018-07-30T17:08:33.178Z,37.70
2018-07-30T17:11:07.580Z,38.00
2018-07-30T17:13:41.918Z,37.60
2018-07-30T17:16:16.062Z,37.10
2018-07-30T17:18:50.455Z,37.20
2018-07-30T17:21:24.736Z,37.00
2018-07-30T17:23:59.233Z,37.90
2018-07-30T17:26:33.514Z,38.50
2018-07-30T17:29:07.933Z,37.70
2018-07-30T17:31:42.211Z,38.80
2018-07-30T17:34:16.558Z,39.50
2018-07-30T17:36:50.709Z,40.50
2018-07-30T17:39:25.006Z,42.30
2018-07-30T17:41:59.285Z,41.60
2018-07-30T17:44:33.601Z,42.50
2018-07-30T17:47:07.934Z,43.20
2018-07-30T17:49:42.278Z,43.00
2018-07-30T17:52:16.578Z,43.00
2018-07-30T17:54:51.160Z,42.80
2018-07-30T17:57:25.288Z,43.30
2018-07-30T17:59:59.778Z,43.70
2018-07-30T18:02:34.064Z,44.50
2018-07-30T18:05:09.022Z,44.80
2018-07-30T18:07:43.357Z,44.80
2018-07-30T18:10:17.697Z,43.80
2018-07-30T18:12:51.821Z,43.50
2018-07-30T18:15:26.237Z,44.90
2018-07-30T18:18:00.454Z,45.70
2018-07-30T18:20:34.837Z,46.40
2018-07-30T18:23:09.043Z,47.90
2018-07-30T18:25:43.330Z,46.70
2018-07-30T18:28:17.585Z,46.90
2018-07-30T18:30:51.805Z,47.30
2018-07-30T18:33:26.138Z,48.00
2018-07-30T18:36:00.410Z,48.50
2018-07-30T18:38:34.645Z,48.60
2018-07-30T18:41:09.009Z,48.10
2018-07-30T18:43:43.185Z,48.50
2018-07-30T18:46:17.346Z,48.30
2018-07-30T18:48:51.614Z,48.50
2018-07-30T18:51:25.918Z,48.10
2018-07-30T18:54:00.222Z,48.80
2018-07-30T18:56:34.648Z,49.10
2018-07-30T18:59:09.008Z,49.50
2018-07-30T19:01:43.190Z,49.30
2018-07-30T19:04:17.462Z,50.40
2018-07-30T19:06:51.790Z,49.90
2018-07-30T19:09:26.042Z,49.90
2018-07-30T19:12:00.525Z,48.50
2018-07-30T19:14:34.857Z,49.20
2018-07-30T19:17:09.130Z,49.90
2018-07-30T19:19:43.441Z,50.30
2018-07-30T19:22:17.977Z,50.80
2018-07-30T19:24:52.331Z,51.40
2018-07-30T19:27:26.754Z,51.20
2018-07-30T19:30:01.100Z,51.10
2018-07-30T19:32:35.526Z,51.70
2018-07-30T19:35:09.762Z,52.70
2018-07-30T19:37:44.259Z,51.70
2018-07-30T19:40:18.450Z,52.70
2018-07-30T19:42:52.709Z,52.70
2018-07-30T19:45:26.956Z,53.20
2018-07-30T19:48:01.242Z,53.10
2018-07-30T19:50:35.550Z,53.90
2018-07-30T19:53:09.721Z,54.20
2018-07-30T19:55:44.018Z,54.30
2018-07-30T19:58:18.578Z,54.40
2018-07-30T20:00:52.694Z,54.70
2018-07-30T20:03:27.005Z,55.10
2018-07-30T20:06:01.279Z,55.80
2018-07-30T20:08:35.614Z,56.10
2018-07-30T20:11:09.936Z,55.70
2018-07-30T20:13:44.089Z,56.30
2018-07-30T20:16:18.393Z,56.20
2018-07-30T20:18:52.875Z,57.10
2018-07-30T20:21:27.217Z,57.20
2018-07-30T20:24:01.646Z,56.90
2018-07-30T20:26:35.841Z,57.40
2018-07-30T20:29:10.208Z,58.00
2018-07-30T20:31:44.553Z,57.80
2018-07-30T20:34:18.893Z,58.30
2018-07-30T20:36:53.206Z,57.20
2018-07-30T20:39:27.494Z,58.40
2018-07-30T20:42:01.802Z,57.80
2018-07-30T20:44:36.139Z,58.50
2018-07-30T20:47:10.466Z,59.10
2018-07-30T20:49:44.892Z,58.90
2018-07-30T20:52:19.182Z,59.30
2018-07-30T20:54:53.778Z,59.70
2018-07-30T20:57:27.918Z,59.80
2018-07-30T21:00:02.110Z,60.00
2018-07-30T21:02:36.604Z,60.30
2018-07-30T21:05:10.778Z,60.70
2018-07-30T21:07:45.176Z,61.10
2018-07-30T21:10:19.441Z,61.50
2018-07-30T21:12:53.707Z,61.30
2018-07-30T21:15:27.994Z,61.60
2018-07-30T21:18:02.284Z,61.50
2018-07-30T21:20:36.601Z,62.50
2018-07-30T21:23:10.857Z,62.70
2018-07-30T21:25:45.058Z,62.20
2018-07-30T21:28:19.443Z,62.90
2018-07-30T21:30:53.649Z,63.10
2018-07-30T21:33:27.930Z,63.50
2018-07-30T21:36:02.209Z,63.30
2018-07-30T21:38:36.397Z,63.50
2018-07-30T21:41:10.685Z,64.00
2018-07-30T21:43:45.047Z,64.50
2018-07-30T21:46:19.463Z,63.80
2018-07-30T21:48:53.608Z,64.60
2018-07-30T21:51:27.918Z,64.70
2018-07-30T21:54:02.225Z,65.50
2018-07-30T21:56:36.565Z,66.40
2018-07-30T21:59:10.913Z,65.70
2018-07-30T22:01:45.399Z,66.40
2018-07-30T22:04:19.649Z,66.70
2018-07-30T22:06:53.922Z,67.90
2018-07-30T22:09:28.108Z,67.50
2018-07-30T22:12:02.523Z,67.30
2018-07-30T22:14:36.585Z,67.50
2018-07-30T22:17:10.899Z,67.20
2018-07-30T22:19:45.199Z,67.70
2018-07-30T22:22:19.502Z,68.00
2018-07-30T22:24:53.951Z,68.30
2018-07-30T22:27:28.130Z,68.00
2018-07-30T22:30:02.599Z,68.70
2018-07-30T22:32:36.993Z,69.10
2018-07-30T22:35:11.214Z,69.20
2018-07-30T22:37:45.520Z,69.30
2018-07-30T22:40:19.810Z,69.30
2018-07-30T22:42:54.119Z,70.10
2018-07-30T22:45:28.405Z,70.30
2018-07-30T22:48:02.714Z,70.30
2018-07-30T22:50:36.976Z,70.10
2018-07-30T22:53:11.311Z,70.30
2018-07-30T22:55:45.574Z,70.40
2018-07-30T22:58:19.897Z,69.50
2018-07-30T23:00:54.158Z,70.50
2018-07-30T23:03:28.478Z,71.00
2018-07-30T23:06:03.011Z,71.40
2018-07-30T23:08:37.277Z,71.40
2018-07-30T23:11:11.679Z,72.10
2018-07-30T23:13:46.138Z,72.70
2018-07-30T23:16:20.439Z,73.40
2018-07-30T23:18:54.657Z,73.30
2018-07-30T23:21:28.998Z,73.00
2018-07-30T23:24:03.363Z,74.60
2018-07-30T23:26:37.601Z,74.10
2018-07-30T23:29:11.961Z,74.10
2018-07-30T23:31:46.161Z,74.00
2018-07-30T23:34:20.466Z,74.60
2018-07-30T23:36:54.892Z,75.10
2018-07-30T23:39:29.121Z,75.90
2018-07-30T23:42:03.433Z,76.30
2018-07-30T23:44:37.849Z,75.70
2018-07-30T23:47:12.250Z,75.70
2018-07-30T23:49:46.593Z,75.80
2018-07-30T23:52:20.945Z,76.00
2018-07-30T23:57:29.467Z,75.80
